Time;durP1;ratioP1;P1;durP2;ratioP2;P2;SDS_P1;SDS_P2;PMS_P1;PMS_P2;Temp;Humidity;BMP_temperature;BMP_pressure;BME280_temperature;BME280_humidity;BME280_pressure;Samples;Min_cycle;Max_cycle;Signal;HPM_P1;HPM_P2
2022/05/16 00:01:04;;;;;;;9.18;5.93;;;;;;;19.99;80.42;98640.00;4972535;28;20509;-67
2022/05/16 00:03:30;;;;;;;8.70;5.55;;;;;;;20.02;80.63;98644.03;5007644;28;20056;-68
2022/05/16 00:05:55;;;;;;;17.10;6.28;;;;;;;19.97;80.52;98632.28;4980095;28;20544;-66
2022/05/16 00:08:21;;;;;;;9.65;6.43;;;;;;;20.03;80.74;98630.63;4982742;28;20041;-65
2022/05/16 00:10:46;;;;;;;8.15;5.63;;;;;;;20.11;81.20;98638.31;4981375;28;20015;-65
2022/05/16 00:13:12;;;;;;;8.77;6.13;;;;;;;20.09;80.70;98636.91;4981650;28;20038;-67
2022/05/16 00:15:37;;;;;;;10.00;5.60;;;;;;;19.72;80.08;98589.84;4998950;28;20434;-65
2022/05/16 00:18:04;;;;;;;10.02;5.78;;;;;;;19.87;80.59;98638.97;4996766;28;20224;-64
2022/05/16 00:20:29;;;;;;;10.38;5.82;;;;;;;19.72;81.67;98636.50;5015998;28;20022;-63
2022/05/16 00:22:55;;;;;;;8.77;5.88;;;;;;;19.55;82.70;98642.19;4982266;28;20481;-65
2022/05/16 00:25:20;;;;;;;8.80;6.60;;;;;;;19.61;80.94;98637.94;5015214;28;20517;-65
2022/05/16 00:27:46;;;;;;;9.48;6.40;;;;;;;19.73;79.37;98632.88;5003211;28;20489;-63
2022/05/16 00:30:15;;;;;;;9.30;6.20;;;;;;;19.69;79.16;98639.56;4996417;28;20054;-63
2022/05/16 00:32:41;;;;;;;11.83;6.60;;;;;;;19.65;79.20;98628.59;4974387;28;20041;-65
2022/05/16 00:35:07;;;;;;;8.85;6.13;;;;;;;19.73;78.95;98644.25;4978931;28;20053;-67
2022/05/16 00:37:33;;;;;;;9.50;6.57;;;;;;;19.59;79.20;98630.22;4982963;28;20520;-64
2022/05/16 00:39:59;;;;;;;10.05;7.10;;;;;;;19.38;79.05;98589.06;4976905;28;20026;-65
2022/05/16 00:42:24;;;;;;;9.82;6.45;;;;;;;19.61;79.52;98624.75;4982196;28;20030;-64
2022/05/16 00:44:49;;;;;;;12.73;7.00;;;;;;;19.50;79.23;98615.63;4994912;28;20030;-63
2022/05/16 00:47:16;;;;;;;9.45;6.45;;;;;;;19.64;79.46;98629.63;4983566;28;20041;-66
2022/05/16 00:49:43;;;;;;;10.50;6.63;;;;;;;19.65;79.65;98622.50;4977823;28;20042;-66
2022/05/16 00:52:14;;;;;;;10.35;6.53;;;;;;;19.55;79.37;98609.75;4963496;28;20027;-63
2022/05/16 00:54:43;;;;;;;8.48;6.30;;;;;;;19.65;79.44;98625.97;4977822;28;20457;-66
2022/05/16 00:57:12;;;;;;;7.72;5.95;;;;;;;19.63;79.64;98621.91;4973977;28;20023;-66
2022/05/16 01:00:03;;;;;;;10.25;6.78;;;;;;;19.63;79.48;98620.06;4962148;28;20031;-61
2022/05/16 01:05:14;;;;;;;10.43;7.00;;;;;;;19.65;79.06;98631.22;5009709;28;20104;-63
2022/05/16 01:07:42;;;;;;;9.55;6.43;;;;;;;19.65;79.13;98627.78;4978561;28;20416;-67
2022/05/16 01:10:11;;;;;;;11.90;6.50;;;;;;;19.71;80.69;98627.81;4997836;28;20509;-66
2022/05/16 01:12:40;;;;;;;8.75;6.47;;;;;;;19.69;79.73;98621.88;4968691;28;20038;-63
2022/05/16 01:15:09;;;;;;;7.70;5.88;;;;;;;19.68;79.85;98622.13;5010772;28;20284;-66
2022/05/16 01:17:34;;;;;;;10.98;6.60;;;;;;;19.35;80.19;98594.72;4976800;28;20227;-64
2022/05/16 01:20:00;;;;;;;9.18;6.63;;;;;;;19.51;80.45;98619.06;4978254;28;20042;-64
2022/05/16 01:22:30;;;;;;;8.05;6.10;;;;;;;19.57;81.66;98626.16;4976359;28;20231;-63
2022/05/16 01:24:57;;;;;;;9.27;6.13;;;;;;;19.63;81.77;98627.19;4980552;28;20038;-62
2022/05/16 01:27:22;;;;;;;9.82;6.78;;;;;;;19.60;81.77;98609.94;4996848;28;20449;-67
2022/05/16 01:29:49;;;;;;;9.57;6.40;;;;;;;19.71;81.70;98621.69;4977471;28;20182;-64
2022/05/16 01:32:15;;;;;;;7.90;5.95;;;;;;;19.72;81.53;98621.50;4996963;28;20027;-63
2022/05/16 01:34:40;;;;;;;10.68;6.47;;;;;;;19.57;80.70;98613.78;5009953;28;20169;-66
2022/05/16 01:37:08;;;;;;;11.45;6.90;;;;;;;19.51;80.14;98584.78;5010098;28;20038;-65
2022/05/16 01:39:33;;;;;;;9.38;6.30;;;;;;;19.45;81.47;98604.84;4964590;28;20170;-62
2022/05/16 01:41:59;;;;;;;10.13;6.65;;;;;;;19.49;82.34;98621.09;5009995;28;20031;-64
2022/05/16 01:44:24;;;;;;;8.65;6.63;;;;;;;19.49;81.82;98619.25;5006387;28;20057;-62
2022/05/16 01:46:50;;;;;;;9.05;6.38;;;;;;;19.54;81.98;98627.38;5013746;28;20037;-66
2022/05/16 01:49:15;;;;;;;10.25;6.55;;;;;;;19.44;82.22;98610.31;4995948;28;20066;-67
2022/05/16 01:51:41;;;;;;;10.13;6.47;;;;;;;19.59;82.34;98629.41;4977354;28;20023;-63
2022/05/16 01:54:07;;;;;;;10.13;6.38;;;;;;;19.49;82.41;98627.16;5012866;28;20057;-64
2022/05/16 01:56:34;;;;;;;8.25;6.07;;;;;;;19.43;83.02;98630.63;4974723;28;20037;-63
2022/05/16 01:59:01;;;;;;;9.23;6.50;;;;;;;19.47;82.40;98617.84;4973374;28;20741;-64
2022/05/16 02:01:27;;;;;;;9.38;6.72;;;;;;;19.45;82.44;98614.59;4981397;28;20035;-63
2022/05/16 02:03:53;;;;;;;11.25;6.40;;;;;;;19.47;83.10;98620.47;4981458;28;20753;-64
2022/05/16 02:06:18;;;;;;;9.10;6.53;;;;;;;19.54;83.25;98627.38;4974263;28;20768;-66
2022/05/16 02:08:44;;;;;;;9.23;6.28;;;;;;;19.37;81.92;98626.16;4989789;28;20454;-64
2022/05/16 02:11:10;;;;;;;9.05;6.07;;;;;;;19.32;81.60;98628.56;4959791;28;20026;-66
2022/05/16 02:13:37;;;;;;;8.10;6.38;;;;;;;19.40;82.43;98608.09;5013271;28;20038;-66
2022/05/16 02:16:02;;;;;;;9.27;6.53;;;;;;;19.26;81.37;98603.00;4995915;28;20034;-67
2022/05/16 02:18:28;;;;;;;10.90;6.45;;;;;;;19.16;81.55;98604.19;4971717;28;20037;-65
2022/05/16 02:24:38;;;;;;;8.50;6.47;;;;;;;19.28;83.02;98611.53;5011017;28;20449;-67
2022/05/16 02:26:26;;;;;;;8.90;6.20;;;;;;;19.26;84.05;98606.47;4979161;28;20113;-64
2022/05/16 02:28:52;;;;;;;11.07;7.13;;;;;;;19.14;83.53;98579.06;4981300;28;20030;-63
2022/05/16 02:31:19;;;;;;;8.93;6.60;;;;;;;19.32;83.61;98610.13;5011443;28;20452;-64
2022/05/16 02:33:45;;;;;;;11.45;6.20;;;;;;;19.35;83.72;98604.47;5012914;28;20033;-67
2022/05/16 02:36:11;;;;;;;10.35;6.35;;;;;;;19.40;83.34;98605.47;4980339;28;20030;-68
2022/05/16 02:38:36;;;;;;;9.18;6.50;;;;;;;19.36;82.83;98600.78;4980216;28;20528;-71
2022/05/16 02:41:02;;;;;;;8.13;6.20;;;;;;;19.26;83.99;98588.03;4982724;28;20033;-66
2022/05/16 02:43:27;;;;;;;7.95;6.18;;;;;;;19.32;83.08;98597.75;4960244;28;20026;-64
2022/05/16 02:45:52;;;;;;;8.55;6.60;;;;;;;19.03;83.54;98572.56;4994776;28;20019;-62
2022/05/16 02:48:18;;;;;;;11.68;6.57;;;;;;;19.34;84.03;98622.06;5013906;28;20034;-64
2022/05/16 02:50:43;;;;;;;8.60;6.10;;;;;;;19.33;83.66;98609.09;4987722;28;20057;-65
2022/05/16 02:53:10;;;;;;;9.13;6.30;;;;;;;19.35;83.55;98618.44;4977568;28;20129;-65
2022/05/16 02:55:36;;;;;;;9.13;6.15;;;;;;;19.05;83.92;98575.81;4984809;28;20125;-63
2022/05/16 02:58:01;;;;;;;11.07;6.80;;;;;;;19.18;84.11;98617.19;4987249;28;20030;-66
2022/05/16 03:00:26;;;;;;;8.25;6.38;;;;;;;19.04;84.02;98591.81;4998165;28;20038;-66
2022/05/16 03:02:52;;;;;;;9.98;6.35;;;;;;;19.19;83.59;98622.25;4985367;28;20026;-68
2022/05/16 03:05:17;;;;;;;9.75;6.70;;;;;;;19.13;83.84;98622.25;5014419;28;20531;-66
2022/05/16 03:07:43;;;;;;;12.07;7.32;;;;;;;19.08;83.38;98616.78;4968674;28;20050;-62
2022/05/16 03:10:11;;;;;;;10.63;6.82;;;;;;;19.10;83.70;98623.47;4978845;28;20026;-67
2022/05/16 03:12:37;;;;;;;10.57;6.40;;;;;;;18.79;84.38;98603.69;4958847;28;20541;-69
2022/05/16 03:15:03;;;;;;;9.75;6.53;;;;;;;18.82;85.06;98634.13;4984368;28;20027;-71
2022/05/16 03:17:28;;;;;;;10.57;6.82;;;;;;;18.73;85.19;98624.75;4955581;28;20339;-65
2022/05/16 03:19:54;;;;;;;9.88;6.65;;;;;;;18.47;85.73;98597.28;4980101;28;20022;-64
2022/05/16 03:22:19;;;;;;;8.02;6.38;;;;;;;18.66;85.78;98634.44;4980958;28;20389;-64
2022/05/16 03:24:45;;;;;;;11.25;6.93;;;;;;;18.63;85.76;98618.00;4989939;28;20034;-65
2022/05/16 03:27:10;;;;;;;11.05;7.15;;;;;;;18.64;85.78;98618.84;5014443;28;20722;-64
2022/05/16 03:29:36;;;;;;;8.32;6.32;;;;;;;18.39;85.89;98585.09;4989771;28;20081;-63
2022/05/16 03:32:02;;;;;;;12.02;7.32;;;;;;;18.75;85.32;98620.91;5019633;28;20122;-65
2022/05/16 03:34:27;;;;;;;10.48;6.85;;;;;;;18.49;85.13;98574.22;4993973;28;20030;-67
2022/05/16 03:36:52;;;;;;;10.18;6.88;;;;;;;18.74;84.94;98618.47;4987848;28;20036;-63
2022/05/16 03:42:02;;;;;;;12.73;7.78;;;;;;;18.67;85.50;98618.41;5014065;28;20496;-69
2022/05/16 03:44:28;;;;;;;10.90;7.07;;;;;;;18.51;86.44;98616.13;4996395;28;20031;-67
2022/05/16 03:46:53;;;;;;;10.98;7.32;;;;;;;18.54;86.42;98619.19;5013991;28;20081;-64
2022/05/16 03:49:19;;;;;;;11.63;8.00;;;;;;;18.62;86.00;98619.03;4970164;28;20124;-66
2022/05/16 03:51:44;;;;;;;13.07;8.65;;;;;;;18.46;86.42;98629.09;4980052;28;20117;-63
2022/05/16 03:54:10;;;;;;;11.95;7.78;;;;;;;18.40;86.88;98626.22;4999363;28;20030;-63
2022/05/16 03:56:35;;;;;;;9.82;7.03;;;;;;;18.48;86.47;98629.69;4978619;28;20140;-66
2022/05/16 03:59:01;;;;;;;10.55;7.13;;;;;;;18.23;86.36;98594.16;5000199;28;20027;-63
2022/05/16 04:01:27;;;;;;;10.40;6.85;;;;;;;18.37;86.54;98645.03;4980525;28;20034;-68
2022/05/16 04:03:53;;;;;;;11.50;7.82;;;;;;;18.43;86.53;98632.91;5012828;28;20548;-65
2022/05/16 04:06:19;;;;;;;12.50;7.65;;;;;;;18.54;86.31;98642.06;4982631;28;20815;-67
2022/05/16 04:08:45;;;;;;;12.02;7.45;;;;;;;18.55;86.18;98638.44;5013606;28;20030;-66
2022/05/16 04:11:14;;;;;;;11.88;7.38;;;;;;;18.53;85.44;98638.63;4955135;28;20501;-66
2022/05/16 04:13:41;;;;;;;11.63;7.88;;;;;;;18.51;85.91;98645.91;5015676;28;20034;-65
2022/05/16 04:16:06;;;;;;;10.63;7.72;;;;;;;18.40;86.50;98623.59;4958313;28;20637;-64
2022/05/16 04:18:32;;;;;;;11.90;7.55;;;;;;;18.30;86.12;98593.38;4980921;28;20015;-66
2022/05/16 04:20:58;;;;;;;10.15;7.40;;;;;;;18.56;86.11;98635.63;5014374;28;20034;-67
2022/05/16 04:23:23;;;;;;;10.85;7.97;;;;;;;18.56;85.93;98637.41;4987716;28;20052;-65
2022/05/16 04:25:49;;;;;;;9.98;6.90;;;;;;;18.51;86.27;98634.56;4990472;28;20700;-66
2022/05/16 04:28:14;;;;;;;11.35;7.57;;;;;;;18.58;86.22;98653.84;4981605;28;20104;-63
2022/05/16 04:30:39;;;;;;;12.45;7.80;;;;;;;18.39;86.51;98607.97;4997488;28;20030;-66
2022/05/16 04:33:07;;;;;;;10.77;7.53;;;;;;;18.67;85.90;98646.59;4977030;28;20023;-66
2022/05/16 04:35:32;;;;;;;10.30;7.13;;;;;;;18.40;86.29;98615.69;4965176;28;20468;-65
2022/05/16 04:37:58;;;;;;;13.10;7.78;;;;;;;18.66;86.07;98651.06;4984565;28;20052;-66
2022/05/16 04:40:23;;;;;;;10.00;7.70;;;;;;;18.68;86.05;98648.22;4993791;28;20029;-63
2022/05/16 04:42:49;;;;;;;9.13;7.32;;;;;;;18.58;86.46;98656.47;5011994;28;20110;-66
2022/05/16 04:45:30;;;;;;;12.40;7.70;;;;;;;18.51;87.01;98656.44;5011989;28;20023;-68
2022/05/16 04:47:58;;;;;;;11.27;7.75;;;;;;;18.58;86.72;98659.94;4961542;28;20481;-66
2022/05/16 04:50:33;;;;;;;10.35;7.72;;;;;;;18.67;86.81;98665.03;4954163;28;20489;-65
2022/05/16 04:52:59;;;;;;;12.57;8.23;;;;;;;18.58;87.35;98641.50;4967213;28;20125;-65
2022/05/16 04:55:26;;;;;;;11.20;7.68;;;;;;;18.62;88.33;98665.63;4994189;28;20534;-66
2022/05/16 04:57:52;;;;;;;10.10;7.43;;;;;;;18.63;88.79;98668.03;4958664;28;20050;-64
2022/05/16 05:00:19;;;;;;;11.55;8.10;;;;;;;18.69;88.55;98670.91;4980177;28;20088;-65
2022/05/16 05:02:45;;;;;;;10.85;7.60;;;;;;;18.70;88.79;98672.53;4958682;28;20564;-66
2022/05/16 05:05:11;;;;;;;12.27;8.88;;;;;;;18.77;88.14;98670.75;4964175;28;20045;-66
2022/05/16 05:07:38;;;;;;;10.45;7.80;;;;;;;18.82;88.47;98669.19;4964601;28;20056;-65
2022/05/16 05:15:47;;;;;;;10.25;8.02;;;;;;;18.87;88.86;98684.38;4985522;28;20117;-66
2022/05/16 05:18:12;;;;;;;11.40;7.63;;;;;;;18.66;88.93;98652.88;4982718;28;20020;-63
2022/05/16 05:20:38;;;;;;;9.73;7.45;;;;;;;18.90;88.96;98684.00;4973500;28;20031;-68
2022/05/16 05:23:04;;;;;;;12.90;7.90;;;;;;;18.97;88.83;98699.84;4980822;28;20034;-70
2022/05/16 05:25:30;;;;;;;12.23;8.18;;;;;;;18.92;88.49;98699.63;4982317;28;20416;-68
2022/05/16 05:27:59;;;;;;;9.52;7.13;;;;;;;19.00;88.94;98707.34;4950506;28;20019;-65
2022/05/16 05:30:25;;;;;;;10.13;7.45;;;;;;;19.03;88.82;98712.22;5014498;28;20030;-66
2022/05/16 05:32:52;;;;;;;10.05;7.60;;;;;;;18.85;88.17;98670.59;4983165;28;20485;-64
2022/05/16 05:35:17;;;;;;;9.60;7.20;;;;;;;19.15;88.36;98715.91;5015057;28;20081;-64
2022/05/16 05:37:43;;;;;;;10.90;7.32;;;;;;;19.13;88.79;98722.38;4949611;28;20069;-67
2022/05/16 05:40:10;;;;;;;11.45;7.53;;;;;;;19.29;88.02;98731.78;5011245;28;20026;-67
2022/05/16 05:42:36;;;;;;;10.77;7.25;;;;;;;19.38;87.81;98727.94;4944981;28;20031;-69
2022/05/16 05:45:03;;;;;;;10.52;7.80;;;;;;;19.18;87.40;98712.91;4971204;28;20015;-66
2022/05/16 05:47:29;;;;;;;9.90;7.60;;;;;;;19.00;87.85;98709.97;4994884;28;20517;-64
2022/05/16 05:49:54;;;;;;;12.63;7.75;;;;;;;19.08;88.40;98728.25;4979021;28;20025;-66
2022/05/16 05:52:21;;;;;;;11.65;7.70;;;;;;;18.97;89.25;98729.63;4978724;28;20088;-65
2022/05/16 05:54:47;;;;;;;9.90;7.30;;;;;;;18.79;89.23;98681.91;4994369;28;20073;-65
2022/05/16 05:57:14;;;;;;;10.23;7.00;;;;;;;19.13;88.59;98702.13;4947080;28;20023;-68
2022/05/16 05:59:39;;;;;;;10.25;7.22;;;;;;;19.09;87.49;98705.34;4988345;28;20114;-71
2022/05/16 06:02:06;;;;;;;11.18;7.32;;;;;;;19.04;87.91;98715.66;4979920;28;20744;-67
2022/05/16 06:04:32;;;;;;;11.15;7.65;;;;;;;19.00;87.73;98716.06;4991038;28;20089;-65
2022/05/16 06:06:57;;;;;;;10.70;7.22;;;;;;;18.59;87.08;98652.84;4981501;28;20512;-62
2022/05/16 06:09:23;;;;;;;10.45;7.38;;;;;;;18.96;86.82;98708.75;5013702;28;20025;-66
2022/05/16 06:11:49;;;;;;;10.30;7.82;;;;;;;18.86;86.89;98701.22;5014103;28;20378;-62
2022/05/16 06:14:15;;;;;;;12.65;7.50;;;;;;;18.96;87.58;98708.75;5007132;28;20045;-62
2022/05/16 06:16:41;;;;;;;9.63;7.20;;;;;;;19.15;86.41;98715.91;5010395;28;20105;-63
2022/05/16 06:19:08;;;;;;;11.60;7.70;;;;;;;19.23;86.07;98714.94;4971914;28;20077;-64
2022/05/16 06:21:34;;;;;;;11.77;6.75;;;;;;;19.21;85.52;98709.84;4981601;28;20029;-62
2022/05/16 06:23:59;;;;;;;10.13;7.35;;;;;;;19.29;86.07;98713.31;4974909;28;20018;-66
2022/05/16 06:26:25;;;;;;;9.70;7.18;;;;;;;19.23;86.75;98708.84;4941884;28;20061;-61
2022/05/16 06:28:50;;;;;;;10.07;7.50;;;;;;;19.26;85.90;98709.28;4979271;28;20096;-61
2022/05/16 06:31:16;;;;;;;9.18;6.93;;;;;;;19.31;85.44;98717.41;5004993;28;20140;-64
2022/05/16 06:33:46;;;;;;;9.52;7.30;;;;;;;19.13;85.57;98694.22;4975247;28;20030;-60
2022/05/16 06:36:12;;;;;;;11.70;7.55;;;;;;;19.30;86.42;98722.88;4960396;28;20210;-60
2022/05/16 06:38:37;;;;;;;9.77;6.90;;;;;;;19.35;85.76;98723.91;4994335;28;20380;-59
2022/05/16 06:41:03;;;;;;;11.60;7.63;;;;;;;19.24;85.42;98713.94;4976162;28;20045;-60
2022/05/16 06:43:30;;;;;;;11.90;7.50;;;;;;;19.24;85.86;98718.38;5007103;28;20038;-64
2022/05/16 06:45:56;;;;;;;11.23;7.57;;;;;;;19.20;86.57;98726.69;4958030;28;20030;-60
2022/05/16 06:48:22;;;;;;;10.88;7.35;;;;;;;19.10;86.34;98722.78;5012284;28;20053;-60
2022/05/16 06:50:48;;;;;;;10.82;7.45;;;;;;;19.01;85.76;98728.22;4979341;28;20031;-60
2022/05/16 06:53:16;;;;;;;11.40;7.22;;;;;;;18.96;86.51;98722.72;4998135;28;20057;-61
2022/05/16 06:55:42;;;;;;;11.38;7.97;;;;;;;18.75;87.69;98697.28;4996279;28;20441;-60
2022/05/16 06:58:08;;;;;;;9.23;7.30;;;;;;;18.80;89.09;98723.84;5008033;28;20038;-64
2022/05/16 07:00:33;;;;;;;12.27;8.40;;;;;;;18.86;89.79;98724.94;4991417;28;20521;-61
2022/05/16 07:02:59;;;;;;;11.98;8.32;;;;;;;18.85;89.13;98725.91;5006930;28;20053;-59
2022/05/16 07:05:24;;;;;;;9.57;7.55;;;;;;;18.86;88.59;98716.22;4976437;28;20049;-60
2022/05/16 07:07:51;;;;;;;13.70;7.95;;;;;;;18.89;89.11;98727.19;5005462;28;20830;-59
2022/05/16 07:10:17;;;;;;;11.32;8.07;;;;;;;18.75;88.04;98694.66;4975291;28;20033;-61
2022/05/16 07:12:42;;;;;;;10.45;7.65;;;;;;;19.11;87.90;98725.25;4990611;28;20023;-61
2022/05/16 07:15:08;;;;;;;9.77;7.75;;;;;;;19.10;84.63;98717.53;4964786;28;20034;-61
2022/05/16 07:17:34;;;;;;;9.43;7.03;;;;;;;18.94;85.25;98706.31;4967281;28;20374;-62
2022/05/16 07:19:59;;;;;;;9.95;7.20;;;;;;;19.23;84.05;98732.56;4989636;28;20524;-59
2022/05/16 07:22:25;;;;;;;9.80;7.30;;;;;;;18.95;85.39;98694.75;4994069;28;20105;-64
2022/05/16 07:24:55;;;;;;;11.23;7.80;;;;;;;18.85;85.88;98686.41;4989318;28;20026;-61
2022/05/16 07:30:06;;;;;;;10.75;7.35;;;;;;;19.09;85.51;98729.06;5006392;28;20038;-59
2022/05/16 07:32:41;;;;;;;10.52;7.28;;;;;;;19.04;86.60;98724.41;4995818;28;20397;-60
2022/05/16 07:35:07;;;;;;;10.27;7.43;;;;;;;19.07;86.77;98721.34;4996774;28;20120;-61
2022/05/16 07:37:33;;;;;;;10.95;7.57;;;;;;;19.08;87.48;98727.47;4976133;28;20038;-58
2022/05/16 07:39:58;;;;;;;14.27;8.05;;;;;;;19.10;86.39;98726.25;4997477;28;20478;-61
2022/05/16 07:42:25;;;;;;;9.63;7.18;;;;;;;19.17;85.52;98723.63;4972533;28;20027;-63
2022/05/16 07:44:50;;;;;;;10.00;7.57;;;;;;;19.66;82.99;98712.00;4998522;28;20053;-61
2022/05/16 07:47:16;;;;;;;10.88;7.32;;;;;;;20.29;80.52;98729.28;4967300;28;20489;-61
2022/05/16 07:49:41;;;;;;;10.57;7.40;;;;;;;20.59;78.14;98728.81;5011336;28;20472;-60
2022/05/16 07:52:07;;;;;;;11.07;6.55;;;;;;;20.46;77.59;98737.59;4965611;28;20031;-62
2022/05/16 07:54:32;;;;;;;9.73;6.50;;;;;;;20.71;77.29;98724.56;4980935;28;20140;-60
2022/05/16 07:56:58;;;;;;;10.05;6.85;;;;;;;20.99;75.52;98726.94;5001611;28;20657;-59
2022/05/16 07:59:23;;;;;;;10.38;6.70;;;;;;;21.17;74.59;98720.13;4984279;28;20049;-63
2022/05/16 08:01:49;;;;;;;9.40;6.55;;;;;;;21.25;74.32;98725.19;4992602;28;20056;-64
2022/05/16 08:04:15;;;;;;;9.68;6.63;;;;;;;21.37;73.16;98704.97;4928935;28;20072;-59
2022/05/16 08:06:40;;;;;;;13.88;7.13;;;;;;;21.81;71.51;98724.47;5011994;28;20022;-60
2022/05/16 08:11:50;;;;;;;11.60;6.45;;;;;;;22.74;69.91;98720.16;4974578;28;20066;-62
2022/05/16 08:14:15;;;;;;;10.13;6.28;;;;;;;22.77;69.27;98717.09;4981727;28;20030;-63
2022/05/16 08:16:41;;;;;;;7.95;5.60;;;;;;;22.92;67.33;98673.50;4978434;28;20034;-61
2022/05/16 08:19:06;;;;;;;10.85;6.43;;;;;;;23.46;65.49;98690.34;4977462;28;20026;-62
2022/05/16 08:21:32;;;;;;;10.65;6.05;;;;;;;24.12;62.73;98703.63;4992794;28;20057;-63
2022/05/16 08:23:57;;;;;;;8.60;5.55;;;;;;;24.61;61.42;98709.53;4977148;28;20772;-61
2022/05/16 08:26:23;;;;;;;8.25;5.65;;;;;;;24.78;59.98;98703.47;4986278;28;20254;-60
2022/05/16 08:28:49;;;;;;;7.25;5.03;;;;;;;25.09;57.65;98708.34;4997975;28;20464;-63
2022/05/16 08:31:14;;;;;;;9.13;5.28;;;;;;;24.84;56.94;98668.75;4971902;28;20062;-63
2022/05/16 08:33:40;;;;;;;8.48;5.78;;;;;;;24.95;60.12;98696.38;4984170;28;20481;-61
2022/05/16 08:41:54;;;;;;;8.50;5.70;;;;;;;25.00;59.34;98714.28;5009574;28;20045;-61
2022/05/16 08:44:20;;;;;;;9.35;5.85;;;;;;;24.88;59.21;98711.66;4982912;28;20031;-61
2022/05/16 08:46:49;;;;;;;8.20;5.30;;;;;;;24.79;57.04;98708.56;4980628;28;20027;-60
2022/05/16 08:49:23;;;;;;;8.97;5.73;;;;;;;24.91;56.25;98709.34;4997668;28;20473;-60
2022/05/16 08:52:01;;;;;;;9.75;6.45;;;;;;;24.96;57.52;98703.31;5013943;28;20022;-60
2022/05/16 08:54:37;;;;;;;8.10;5.55;;;;;;;25.24;55.81;98702.53;5009033;28;20132;-61
2022/05/16 08:57:06;;;;;;;10.02;5.15;;;;;;;25.17;56.22;98709.03;4976981;28;20100;-61
2022/05/16 08:59:33;;;;;;;7.57;5.27;;;;;;;25.43;57.03;98703.16;5014354;28;20037;-61
2022/05/16 09:02:21;;;;;;;8.05;5.20;;;;;;;25.50;55.11;98693.16;4977553;28;20093;-62
2022/05/16 09:05:05;;;;;;;8.40;5.72;;;;;;;26.07;56.88;98696.78;4962485;28;20035;-63
2022/05/16 09:07:50;;;;;;;9.63;5.53;;;;;;;26.00;55.41;98696.13;4980117;28;20030;-61
2022/05/16 09:10:20;;;;;;;8.55;5.20;;;;;;;26.16;53.64;98697.13;4997953;28;20022;-63
2022/05/16 09:13:08;;;;;;;7.95;5.57;;;;;;;26.37;54.25;98695.59;5016553;28;20026;-62
2022/05/16 09:15:51;;;;;;;8.68;5.60;;;;;;;26.72;53.06;98683.78;4958070;28;20022;-61
2022/05/16 09:18:25;;;;;;;9.48;5.30;;;;;;;26.87;54.21;98685.84;5005420;28;20031;-62
2022/05/16 09:21:06;;;;;;;9.40;5.45;;;;;;;27.08;51.28;98653.00;4994103;28;20037;-63
2022/05/16 09:24:04;;;;;;;9.10;5.32;;;;;;;27.63;48.98;98677.81;4979355;28;20034;-61
2022/05/16 09:26:32;;;;;;;8.98;6.03;;;;;;;27.58;48.18;98680.44;4966654;28;20034;-62
2022/05/16 09:29:09;;;;;;;11.93;6.53;;;;;;;27.51;48.09;98666.47;4979844;28;20038;-61
2022/05/16 09:31:42;;;;;;;8.57;5.70;;;;;;;27.59;48.06;98674.03;4998973;28;20355;-62
2022/05/16 09:34:09;;;;;;;12.27;5.80;;;;;;;27.36;49.17;98672.50;4982526;28;20041;-61
2022/05/16 09:36:40;;;;;;;9.45;5.85;;;;;;;27.06;49.56;98681.00;4980752;28;20027;-60
2022/05/16 09:39:08;;;;;;;9.65;5.82;;;;;;;26.63;50.94;98667.41;4950118;28;20117;-62
2022/05/16 09:41:34;;;;;;;9.57;5.78;;;;;;;26.65;49.96;98675.97;4996958;28;20050;-61
2022/05/16 09:44:02;;;;;;;8.63;5.82;;;;;;;26.06;51.91;98663.97;4982956;28;20073;-64
2022/05/16 09:46:31;;;;;;;8.50;5.40;;;;;;;25.82;52.09;98668.66;4981405;28;20364;-62
2022/05/16 09:49:09;;;;;;;9.00;6.28;;;;;;;25.66;53.67;98667.59;4985173;28;20026;-60
2022/05/16 09:51:44;;;;;;;9.13;5.72;;;;;;;25.54;54.17;98666.06;4980905;28;20058;-63
2022/05/16 09:54:18;;;;;;;8.93;6.07;;;;;;;25.41;53.80;98667.16;4983324;28;20030;-61
2022/05/16 09:57:09;;;;;;;10.63;6.00;;;;;;;25.38;54.10;98668.47;4981929;28;20646;-61
2022/05/16 09:59:50;;;;;;;8.95;5.95;;;;;;;25.46;54.49;98661.94;4991671;28;20057;-63
2022/05/16 10:02:20;;;;;;;10.60;6.40;;;;;;;25.20;54.88;98639.38;4991350;28;20033;-64
2022/05/16 10:04:49;;;;;;;11.95;7.03;;;;;;;25.34;55.66;98667.34;4958977;28;20121;-61
2022/05/16 10:07:14;;;;;;;12.17;6.67;;;;;;;25.28;55.39;98668.28;4988021;28;20029;-63
2022/05/16 10:09:48;;;;;;;9.93;5.63;;;;;;;25.40;55.37;98661.06;4961641;28;20038;-64
2022/05/16 10:12:17;;;;;;;11.18;6.65;;;;;;;25.38;54.34;98660.47;4959410;28;20030;-62
2022/05/16 10:14:43;;;;;;;8.35;5.85;;;;;;;25.44;54.03;98667.50;4964264;28;20066;-59
2022/05/16 10:17:12;;;;;;;11.07;6.40;;;;;;;25.41;55.12;98661.84;4959606;28;20058;-65
2022/05/16 10:19:39;;;;;;;11.50;7.38;;;;;;;25.21;55.41;98668.41;4997765;28;20037;-63
2022/05/16 10:22:08;;;;;;;11.05;7.15;;;;;;;25.21;55.86;98660.44;4962508;28;20030;-59
2022/05/16 10:24:35;;;;;;;;;;;;;;;25.23;55.09;98649.56;4971825;28;20465;-59
2022/05/16 10:27:06;;;;;;;9.38;6.20;;;;;;;25.16;55.33;98614.31;4979378;28;19921;-60
2022/05/16 10:29:34;;;;;;;17.17;7.07;;;;;;;25.42;54.10;98642.97;4993073;28;20370;-61
2022/05/16 10:35:11;;;;;;;12.02;5.53;;;;;;;25.39;53.03;98616.03;4979485;28;20428;-62
2022/05/16 10:37:43;;;;;;;10.23;5.22;;;;;;;25.60;49.71;98646.47;4991765;28;20022;-63
2022/05/16 10:40:11;;;;;;;9.82;5.22;;;;;;;25.50;52.04;98634.63;4985310;28;20062;-69
2022/05/16 10:43:20;;;;;;;9.40;5.18;;;;;;;25.59;52.04;98636.84;4981193;28;20591;-65
2022/05/16 10:45:49;;;;;;;10.75;4.93;;;;;;;25.68;50.44;98632.75;4933256;28;20037;-67
2022/05/16 10:48:36;;;;;;;7.47;4.90;;;;;;;25.60;49.55;98631.31;4929617;28;20033;-63
2022/05/16 10:51:13;;;;;;;8.57;4.80;;;;;;;25.66;49.13;98632.19;4988848;28;20302;-64
2022/05/16 10:53:56;;;;;;;7.88;4.30;;;;;;;25.65;50.08;98631.38;4975639;28;20031;-63
2022/05/16 10:56:34;;;;;;;8.93;5.18;;;;;;;25.33;49.91;98576.03;5006501;28;20053;-60
2022/05/16 10:59:15;;;;;;;8.45;4.57;;;;;;;25.78;50.35;98624.13;4987717;28;20478;-62
2022/05/16 11:01:44;;;;;;;7.47;4.68;;;;;;;25.87;50.18;98634.13;4992095;28;20082;-64
2022/05/16 11:04:16;;;;;;;10.20;4.85;;;;;;;25.83;48.82;98629.50;4979173;28;20096;-61
2022/05/16 11:07:13;;;;;;;8.10;4.82;;;;;;;25.90;49.63;98622.16;4982104;28;20035;-62
2022/05/16 11:10:07;;;;;;;9.40;4.93;;;;;;;25.97;48.70;98625.47;4986417;28;20426;-65
2022/05/16 11:12:33;;;;;;;8.63;4.78;;;;;;;25.98;48.02;98616.47;4979887;28;20050;-63
2022/05/16 11:15:34;;;;;;;9.20;4.97;;;;;;;26.17;47.82;98632.94;5012007;28;20023;-62
2022/05/16 11:18:15;;;;;;;7.63;4.32;;;;;;;26.35;47.73;98618.53;4981414;28;20034;-61
2022/05/16 11:20:47;;;;;;;8.18;5.38;;;;;;;26.52;45.87;98612.34;4993300;28;20023;-63
2022/05/16 11:23:29;;;;;;;9.32;5.20;;;;;;;26.37;48.25;98618.28;4997434;28;20034;-64
2022/05/16 11:26:02;;;;;;;7.57;4.90;;;;;;;26.26;48.91;98617.34;4988298;28;20362;-60
2022/05/16 11:31:51;;;;;;;9.55;5.13;;;;;;;26.09;50.01;98575.56;4978408;28;20169;-60
2022/05/16 11:34:23;;;;;;;8.15;4.47;;;;;;;26.18;49.28;98567.97;4996843;28;20027;-60
2022/05/16 11:37:30;;;;;;;11.38;5.60;;;;;;;26.25;48.36;98611.22;5001897;28;20160;-60
2022/05/16 11:40:13;;;;;;;9.23;5.00;;;;;;;26.21;47.01;98571.97;4985593;28;20596;-62
2022/05/16 11:42:47;;;;;;;12.02;5.40;;;;;;;26.31;47.76;98595.31;4993291;28;20026;-62
2022/05/16 11:45:26;;;;;;;8.57;4.80;;;;;;;26.36;47.69;98585.50;4978914;28;20104;-63
2022/05/16 11:47:56;;;;;;;9.73;4.38;;;;;;;26.29;45.88;98552.91;4980679;28;20075;-63
2022/05/16 11:50:34;;;;;;;7.50;4.18;;;;;;;26.65;46.29;98578.13;4930704;28;20037;-64
2022/05/16 11:53:47;;;;;;;8.95;4.60;;;;;;;26.64;44.65;98579.19;4838446;28;20034;-63
2022/05/16 12:02:16;;;;;;;8.57;3.55;;;;;;;26.44;42.79;98528.28;4830884;28;20511;-63
2022/05/16 12:04:51;;;;;;;8.55;3.67;;;;;;;26.53;43.48;98528.66;4890269;28;21866;-66
2022/05/16 12:07:35;;;;;;;7.32;3.67;;;;;;;26.72;42.67;98547.78;4870872;28;20038;-65
2022/05/16 12:10:01;;;;;;;7.50;2.90;;;;;;;26.68;40.54;98552.81;4872412;28;20500;-61
2022/05/16 12:12:28;;;;;;;7.95;3.25;;;;;;;26.75;40.71;98549.97;4806017;28;20046;-62
2022/05/16 12:15:24;;;;;;;5.40;2.90;;;;;;;26.79;40.12;98545.72;4876886;28;20698;-64